sensor_id;sensor_type;location;lat;lon;timestamp;P1;durP1;ratioP1;P2;durP2;ratioP2
12076;SDS011;12420;42.676;23.262;2023-09-30T00:01:57;11.73;;;5.80;;
12076;SDS011;12420;42.676;23.262;2023-09-30T00:04:24;8.97;;;5.53;;
12076;SDS011;12420;42.676;23.262;2023-09-30T00:06:52;9.33;;;5.03;;
12076;SDS011;12420;42.676;23.262;2023-09-30T00:09:20;11.13;;;5.23;;
12076;SDS011;12420;42.676;23.262;2023-09-30T00:11:47;10.00;;;5.50;;
12076;SDS011;12420;42.676;23.262;2023-09-30T00:14:14;10.40;;;5.27;;
12076;SDS011;12420;42.676;23.262;2023-09-30T00:16:42;12.10;;;5.47;;
12076;SDS011;12420;42.676;23.262;2023-09-30T00:19:09;8.67;;;5.23;;
12076;SDS011;12420;42.676;23.262;2023-09-30T00:21:36;10.73;;;5.60;;
12076;SDS011;12420;42.676;23.262;2023-09-30T00:24:03;9.27;;;5.80;;
12076;SDS011;12420;42.676;23.262;2023-09-30T00:26:31;12.63;;;5.53;;
12076;SDS011;12420;42.676;23.262;2023-09-30T00:28:58;13.83;;;5.77;;
12076;SDS011;12420;42.676;23.262;2023-09-30T00:31:25;8.00;;;5.20;;
12076;SDS011;12420;42.676;23.262;2023-09-30T00:33:52;13.67;;;6.03;;
12076;SDS011;12420;42.676;23.262;2023-09-30T00:36:19;11.03;;;5.80;;
12076;SDS011;12420;42.676;23.262;2023-09-30T00:38:46;9.80;;;5.50;;
12076;SDS011;12420;42.676;23.262;2023-09-30T00:41:13;10.67;;;5.60;;
12076;SDS011;12420;42.676;23.262;2023-09-30T00:43:41;10.37;;;5.63;;
12076;SDS011;12420;42.676;23.262;2023-09-30T00:46:11;11.97;;;5.50;;
12076;SDS011;12420;42.676;23.262;2023-09-30T00:48:44;9.70;;;5.50;;
12076;SDS011;12420;42.676;23.262;2023-09-30T00:51:11;6.00;;;5.40;;
12076;SDS011;12420;42.676;23.262;2023-09-30T00:53:38;9.40;;;4.80;;
12076;SDS011;12420;42.676;23.262;2023-09-30T00:56:05;10.30;;;5.37;;
12076;SDS011;12420;42.676;23.262;2023-09-30T00:58:32;8.17;;;5.27;;
12076;SDS011;12420;42.676;23.262;2023-09-30T01:01:04;7.80;;;5.13;;
12076;SDS011;12420;42.676;23.262;2023-09-30T01:03:33;10.40;;;5.60;;
12076;SDS011;12420;42.676;23.262;2023-09-30T01:06:01;8.33;;;5.30;;
12076;SDS011;12420;42.676;23.262;2023-09-30T01:08:28;9.23;;;5.43;;
12076;SDS011;12420;42.676;23.262;2023-09-30T01:10:55;9.17;;;5.70;;
12076;SDS011;12420;42.676;23.262;2023-09-30T01:13:22;7.97;;;5.40;;
12076;SDS011;12420;42.676;23.262;2023-09-30T01:15:49;10.73;;;5.47;;
12076;SDS011;12420;42.676;23.262;2023-09-30T01:18:17;13.07;;;5.40;;
12076;SDS011;12420;42.676;23.262;2023-09-30T01:20:43;11.10;;;5.13;;
12076;SDS011;12420;42.676;23.262;2023-09-30T01:23:12;8.33;;;5.40;;
12076;SDS011;12420;42.676;23.262;2023-09-30T01:25:38;9.67;;;5.60;;
12076;SDS011;12420;42.676;23.262;2023-09-30T01:28:07;12.40;;;5.40;;
12076;SDS011;12420;42.676;23.262;2023-09-30T01:30:35;11.27;;;5.50;;
12076;SDS011;12420;42.676;23.262;2023-09-30T01:33:02;10.80;;;5.57;;
12076;SDS011;12420;42.676;23.262;2023-09-30T01:35:29;10.80;;;5.63;;
12076;SDS011;12420;42.676;23.262;2023-09-30T01:37:56;9.00;;;5.30;;
12076;SDS011;12420;42.676;23.262;2023-09-30T01:40:24;9.10;;;5.20;;
12076;SDS011;12420;42.676;23.262;2023-09-30T01:42:52;9.67;;;5.20;;
12076;SDS011;12420;42.676;23.262;2023-09-30T01:45:19;9.67;;;5.40;;
12076;SDS011;12420;42.676;23.262;2023-09-30T01:47:46;7.37;;;5.10;;
12076;SDS011;12420;42.676;23.262;2023-09-30T01:50:13;11.07;;;5.77;;
12076;SDS011;12420;42.676;23.262;2023-09-30T01:52:40;21.00;;;5.30;;
12076;SDS011;12420;42.676;23.262;2023-09-30T01:55:07;13.93;;;5.10;;
12076;SDS011;12420;42.676;23.262;2023-09-30T01:57:36;9.20;;;5.57;;
12076;SDS011;12420;42.676;23.262;2023-09-30T02:00:02;7.13;;;5.20;;
12076;SDS011;12420;42.676;23.262;2023-09-30T02:02:34;8.30;;;4.90;;
12076;SDS011;12420;42.676;23.262;2023-09-30T02:05:01;10.73;;;5.73;;
12076;SDS011;12420;42.676;23.262;2023-09-30T02:07:29;6.33;;;5.37;;
12076;SDS011;12420;42.676;23.262;2023-09-30T02:09:57;12.33;;;5.30;;
12076;SDS011;12420;42.676;23.262;2023-09-30T02:12:24;9.10;;;5.07;;
12076;SDS011;12420;42.676;23.262;2023-09-30T02:14:54;10.90;;;5.60;;
12076;SDS011;12420;42.676;23.262;2023-09-30T02:17:20;8.10;;;5.20;;
12076;SDS011;12420;42.676;23.262;2023-09-30T02:19:47;11.93;;;5.57;;
12076;SDS011;12420;42.676;23.262;2023-09-30T02:22:15;15.67;;;5.50;;
12076;SDS011;12420;42.676;23.262;2023-09-30T02:24:41;10.50;;;5.50;;
12076;SDS011;12420;42.676;23.262;2023-09-30T02:27:08;9.00;;;5.10;;
12076;SDS011;12420;42.676;23.262;2023-09-30T02:29:35;9.23;;;5.23;;
12076;SDS011;12420;42.676;23.262;2023-09-30T02:32:03;11.90;;;5.50;;
12076;SDS011;12420;42.676;23.262;2023-09-30T02:34:30;9.93;;;5.27;;
12076;SDS011;12420;42.676;23.262;2023-09-30T02:36:57;7.17;;;5.70;;
12076;SDS011;12420;42.676;23.262;2023-09-30T02:39:25;8.63;;;5.90;;
12076;SDS011;12420;42.676;23.262;2023-09-30T02:41:52;7.03;;;5.20;;
12076;SDS011;12420;42.676;23.262;2023-09-30T02:44:19;14.67;;;5.70;;
12076;SDS011;12420;42.676;23.262;2023-09-30T02:46:46;16.13;;;5.93;;
12076;SDS011;12420;42.676;23.262;2023-09-30T02:49:14;10.70;;;5.20;;
12076;SDS011;12420;42.676;23.262;2023-09-30T02:51:41;8.43;;;5.30;;
12076;SDS011;12420;42.676;23.262;2023-09-30T02:54:07;12.70;;;5.00;;
12076;SDS011;12420;42.676;23.262;2023-09-30T02:56:34;10.77;;;5.67;;
12076;SDS011;12420;42.676;23.262;2023-09-30T02:59:01;12.60;;;5.87;;
12076;SDS011;12420;42.676;23.262;2023-09-30T03:01:30;13.77;;;5.73;;
12076;SDS011;12420;42.676;23.262;2023-09-30T03:03:57;10.00;;;5.77;;
12076;SDS011;12420;42.676;23.262;2023-09-30T03:06:25;10.13;;;5.60;;
12076;SDS011;12420;42.676;23.262;2023-09-30T03:08:52;15.63;;;5.90;;
12076;SDS011;12420;42.676;23.262;2023-09-30T03:11:19;6.23;;;5.53;;
12076;SDS011;12420;42.676;23.262;2023-09-30T03:13:46;11.33;;;5.87;;
12076;SDS011;12420;42.676;23.262;2023-09-30T03:16:13;11.63;;;5.67;;
12076;SDS011;12420;42.676;23.262;2023-09-30T03:18:39;11.20;;;5.50;;
12076;SDS011;12420;42.676;23.262;2023-09-30T03:21:13;19.13;;;6.67;;
12076;SDS011;12420;42.676;23.262;2023-09-30T03:23:42;12.17;;;6.20;;
12076;SDS011;12420;42.676;23.262;2023-09-30T03:26:09;10.33;;;5.80;;
12076;SDS011;12420;42.676;23.262;2023-09-30T03:28:37;9.73;;;5.50;;
12076;SDS011;12420;42.676;23.262;2023-09-30T03:31:04;11.73;;;5.60;;
12076;SDS011;12420;42.676;23.262;2023-09-30T03:33:31;11.90;;;5.70;;
12076;SDS011;12420;42.676;23.262;2023-09-30T03:35:58;12.07;;;4.90;;
12076;SDS011;12420;42.676;23.262;2023-09-30T03:38:25;15.20;;;5.83;;
12076;SDS011;12420;42.676;23.262;2023-09-30T03:40:54;6.17;;;5.53;;
12076;SDS011;12420;42.676;23.262;2023-09-30T03:43:22;7.27;;;4.90;;
12076;SDS011;12420;42.676;23.262;2023-09-30T03:45:49;9.97;;;5.23;;
12076;SDS011;12420;42.676;23.262;2023-09-30T03:48:18;8.33;;;5.07;;
12076;SDS011;12420;42.676;23.262;2023-09-30T03:50:44;9.33;;;5.07;;
12076;SDS011;12420;42.676;23.262;2023-09-30T03:53:11;7.37;;;5.07;;
12076;SDS011;12420;42.676;23.262;2023-09-30T03:55:38;8.33;;;5.17;;
12076;SDS011;12420;42.676;23.262;2023-09-30T03:58:07;9.20;;;5.47;;
12076;SDS011;12420;42.676;23.262;2023-09-30T04:00:34;14.97;;;5.37;;
12076;SDS011;12420;42.676;23.262;2023-09-30T04:03:01;12.20;;;5.20;;
12076;SDS011;12420;42.676;23.262;2023-09-30T04:05:28;9.20;;;5.53;;
12076;SDS011;12420;42.676;23.262;2023-09-30T04:07:57;12.27;;;5.57;;
12076;SDS011;12420;42.676;23.262;2023-09-30T04:10:24;9.47;;;5.37;;
12076;SDS011;12420;42.676;23.262;2023-09-30T04:12:50;10.73;;;5.20;;
12076;SDS011;12420;42.676;23.262;2023-09-30T04:15:19;16.67;;;5.60;;
12076;SDS011;12420;42.676;23.262;2023-09-30T04:17:46;8.07;;;5.43;;
12076;SDS011;12420;42.676;23.262;2023-09-30T04:20:12;15.03;;;5.77;;
12076;SDS011;12420;42.676;23.262;2023-09-30T04:22:46;13.83;;;5.67;;
12076;SDS011;12420;42.676;23.262;2023-09-30T04:25:14;9.17;;;5.77;;
12076;SDS011;12420;42.676;23.262;2023-09-30T04:27:41;11.27;;;5.73;;
12076;SDS011;12420;42.676;23.262;2023-09-30T04:30:09;19.90;;;6.10;;
12076;SDS011;12420;42.676;23.262;2023-09-30T04:32:38;12.47;;;5.70;;
12076;SDS011;12420;42.676;23.262;2023-09-30T04:35:05;15.10;;;6.17;;
12076;SDS011;12420;42.676;23.262;2023-09-30T04:37:33;16.13;;;6.13;;
12076;SDS011;12420;42.676;23.262;2023-09-30T04:40:01;14.80;;;5.93;;
12076;SDS011;12420;42.676;23.262;2023-09-30T04:42:33;14.13;;;6.00;;
12076;SDS011;12420;42.676;23.262;2023-09-30T04:45:01;13.30;;;5.63;;
12076;SDS011;12420;42.676;23.262;2023-09-30T04:47:29;13.70;;;6.17;;
12076;SDS011;12420;42.676;23.262;2023-09-30T04:49:58;12.20;;;6.10;;
12076;SDS011;12420;42.676;23.262;2023-09-30T04:52:29;13.60;;;6.60;;
12076;SDS011;12420;42.676;23.262;2023-09-30T04:54:56;11.13;;;6.40;;
12076;SDS011;12420;42.676;23.262;2023-09-30T04:57:23;26.83;;;6.87;;
12076;SDS011;12420;42.676;23.262;2023-09-30T04:59:50;15.63;;;6.47;;
12076;SDS011;12420;42.676;23.262;2023-09-30T05:02:17;14.17;;;6.47;;
12076;SDS011;12420;42.676;23.262;2023-09-30T05:04:43;11.07;;;5.77;;
12076;SDS011;12420;42.676;23.262;2023-09-30T05:07:13;7.67;;;5.83;;
12076;SDS011;12420;42.676;23.262;2023-09-30T05:09:40;14.27;;;6.33;;
12076;SDS011;12420;42.676;23.262;2023-09-30T05:12:07;14.50;;;5.90;;
12076;SDS011;12420;42.676;23.262;2023-09-30T05:14:36;14.53;;;6.47;;
12076;SDS011;12420;42.676;23.262;2023-09-30T05:17:04;20.23;;;6.50;;
12076;SDS011;12420;42.676;23.262;2023-09-30T05:19:35;11.57;;;6.17;;
12076;SDS011;12420;42.676;23.262;2023-09-30T05:22:27;14.43;;;6.13;;
12076;SDS011;12420;42.676;23.262;2023-09-30T05:24:57;14.10;;;6.40;;
12076;SDS011;12420;42.676;23.262;2023-09-30T05:27:27;12.67;;;6.60;;
12076;SDS011;12420;42.676;23.262;2023-09-30T05:29:53;12.13;;;6.27;;
12076;SDS011;12420;42.676;23.262;2023-09-30T05:32:21;14.90;;;6.43;;
12076;SDS011;12420;42.676;23.262;2023-09-30T05:34:48;11.30;;;6.27;;
12076;SDS011;12420;42.676;23.262;2023-09-30T05:37:15;16.00;;;6.60;;
12076;SDS011;12420;42.676;23.262;2023-09-30T05:39:44;25.30;;;7.27;;
12076;SDS011;12420;42.676;23.262;2023-09-30T05:42:13;20.97;;;7.00;;
12076;SDS011;12420;42.676;23.262;2023-09-30T05:44:40;19.00;;;7.57;;
12076;SDS011;12420;42.676;23.262;2023-09-30T05:47:07;32.30;;;7.87;;
12076;SDS011;12420;42.676;23.262;2023-09-30T05:49:34;27.83;;;7.40;;
12076;SDS011;12420;42.676;23.262;2023-09-30T05:52:01;17.83;;;7.83;;
12076;SDS011;12420;42.676;23.262;2023-09-30T05:54:28;21.13;;;7.50;;
12076;SDS011;12420;42.676;23.262;2023-09-30T05:56:56;9.43;;;7.33;;
12076;SDS011;12420;42.676;23.262;2023-09-30T05:59:23;15.07;;;8.20;;
12076;SDS011;12420;42.676;23.262;2023-09-30T06:01:51;17.33;;;8.23;;
12076;SDS011;12420;42.676;23.262;2023-09-30T06:04:17;13.00;;;7.53;;
12076;SDS011;12420;42.676;23.262;2023-09-30T06:06:46;17.40;;;8.67;;
12076;SDS011;12420;42.676;23.262;2023-09-30T06:09:12;17.57;;;8.87;;
12076;SDS011;12420;42.676;23.262;2023-09-30T06:11:39;15.17;;;8.33;;
12076;SDS011;12420;42.676;23.262;2023-09-30T06:14:07;26.00;;;9.40;;
12076;SDS011;12420;42.676;23.262;2023-09-30T06:16:34;20.67;;;8.77;;
12076;SDS011;12420;42.676;23.262;2023-09-30T06:19:01;18.20;;;9.67;;
12076;SDS011;12420;42.676;23.262;2023-09-30T06:21:29;22.33;;;10.33;;
12076;SDS011;12420;42.676;23.262;2023-09-30T06:23:56;18.13;;;9.90;;
12076;SDS011;12420;42.676;23.262;2023-09-30T06:26:23;22.00;;;9.73;;
12076;SDS011;12420;42.676;23.262;2023-09-30T06:28:54;26.17;;;10.27;;
12076;SDS011;12420;42.676;23.262;2023-09-30T06:31:22;24.03;;;11.03;;
12076;SDS011;12420;42.676;23.262;2023-09-30T06:33:49;16.40;;;9.80;;
12076;SDS011;12420;42.676;23.262;2023-09-30T06:36:16;23.77;;;10.43;;
12076;SDS011;12420;42.676;23.262;2023-09-30T06:38:43;22.93;;;10.20;;
12076;SDS011;12420;42.676;23.262;2023-09-30T06:41:15;22.43;;;10.10;;
12076;SDS011;12420;42.676;23.262;2023-09-30T06:43:43;25.80;;;10.13;;
12076;SDS011;12420;42.676;23.262;2023-09-30T06:46:10;20.63;;;10.60;;
12076;SDS011;12420;42.676;23.262;2023-09-30T06:48:39;31.43;;;10.67;;
12076;SDS011;12420;42.676;23.262;2023-09-30T06:51:09;24.83;;;10.20;;
12076;SDS011;12420;42.676;23.262;2023-09-30T06:53:40;17.97;;;9.87;;
12076;SDS011;12420;42.676;23.262;2023-09-30T06:56:07;23.87;;;9.63;;
12076;SDS011;12420;42.676;23.262;2023-09-30T06:58:34;21.67;;;9.30;;
12076;SDS011;12420;42.676;23.262;2023-09-30T07:01:01;23.73;;;9.27;;
12076;SDS011;12420;42.676;23.262;2023-09-30T07:03:28;24.63;;;9.20;;
12076;SDS011;12420;42.676;23.262;2023-09-30T07:05:56;23.17;;;8.97;;
12076;SDS011;12420;42.676;23.262;2023-09-30T07:08:25;21.73;;;8.03;;
12076;SDS011;12420;42.676;23.262;2023-09-30T07:10:53;21.30;;;7.27;;
12076;SDS011;12420;42.676;23.262;2023-09-30T07:13:21;13.77;;;7.40;;
12076;SDS011;12420;42.676;23.262;2023-09-30T07:15:48;15.90;;;5.83;;
12076;SDS011;12420;42.676;23.262;2023-09-30T07:18:15;14.17;;;5.73;;
12076;SDS011;12420;42.676;23.262;2023-09-30T07:20:42;25.73;;;5.33;;
12076;SDS011;12420;42.676;23.262;2023-09-30T07:23:11;15.27;;;5.70;;
12076;SDS011;12420;42.676;23.262;2023-09-30T07:25:38;15.73;;;5.13;;
12076;SDS011;12420;42.676;23.262;2023-09-30T07:28:05;17.27;;;5.17;;
12076;SDS011;12420;42.676;23.262;2023-09-30T07:30:36;19.13;;;5.57;;
12076;SDS011;12420;42.676;23.262;2023-09-30T07:33:03;14.17;;;5.10;;
12076;SDS011;12420;42.676;23.262;2023-09-30T07:35:30;18.17;;;5.37;;
12076;SDS011;12420;42.676;23.262;2023-09-30T07:37:57;15.93;;;5.10;;
12076;SDS011;12420;42.676;23.262;2023-09-30T07:40:25;14.53;;;5.33;;
12076;SDS011;12420;42.676;23.262;2023-09-30T07:42:52;17.37;;;5.13;;
12076;SDS011;12420;42.676;23.262;2023-09-30T07:45:19;8.70;;;5.07;;
12076;SDS011;12420;42.676;23.262;2023-09-30T07:47:46;22.20;;;5.70;;
12076;SDS011;12420;42.676;23.262;2023-09-30T07:50:14;9.87;;;4.93;;
12076;SDS011;12420;42.676;23.262;2023-09-30T07:52:41;18.03;;;5.37;;
12076;SDS011;12420;42.676;23.262;2023-09-30T07:55:08;14.00;;;5.10;;
12076;SDS011;12420;42.676;23.262;2023-09-30T07:57:38;15.80;;;4.63;;
12076;SDS011;12420;42.676;23.262;2023-09-30T08:00:07;15.80;;;4.50;;
12076;SDS011;12420;42.676;23.262;2023-09-30T08:02:34;16.70;;;4.90;;
12076;SDS011;12420;42.676;23.262;2023-09-30T08:05:01;12.47;;;4.40;;
12076;SDS011;12420;42.676;23.262;2023-09-30T08:07:31;14.03;;;4.70;;
12076;SDS011;12420;42.676;23.262;2023-09-30T08:09:58;14.93;;;4.77;;
12076;SDS011;12420;42.676;23.262;2023-09-30T08:12:24;15.97;;;4.90;;
12076;SDS011;12420;42.676;23.262;2023-09-30T08:14:52;15.23;;;4.90;;
12076;SDS011;12420;42.676;23.262;2023-09-30T08:17:19;9.50;;;4.77;;
12076;SDS011;12420;42.676;23.262;2023-09-30T08:19:46;16.80;;;5.00;;
12076;SDS011;12420;42.676;23.262;2023-09-30T08:22:13;12.07;;;4.60;;
12076;SDS011;12420;42.676;23.262;2023-09-30T08:24:39;8.37;;;4.93;;
12076;SDS011;12420;42.676;23.262;2023-09-30T08:27:06;11.20;;;5.67;;
12076;SDS011;12420;42.676;23.262;2023-09-30T08:29:33;13.27;;;5.77;;
12076;SDS011;12420;42.676;23.262;2023-09-30T08:32:02;10.87;;;5.83;;
12076;SDS011;12420;42.676;23.262;2023-09-30T08:34:30;19.83;;;5.63;;
12076;SDS011;12420;42.676;23.262;2023-09-30T08:36:56;12.57;;;5.73;;
12076;SDS011;12420;42.676;23.262;2023-09-30T08:39:23;13.13;;;5.90;;
12076;SDS011;12420;42.676;23.262;2023-09-30T08:41:50;13.63;;;6.13;;
12076;SDS011;12420;42.676;23.262;2023-09-30T08:44:17;13.60;;;6.03;;
12076;SDS011;12420;42.676;23.262;2023-09-30T08:46:45;10.00;;;6.17;;
12076;SDS011;12420;42.676;23.262;2023-09-30T08:49:14;15.70;;;6.10;;
12076;SDS011;12420;42.676;23.262;2023-09-30T08:51:42;15.83;;;6.90;;
12076;SDS011;12420;42.676;23.262;2023-09-30T08:54:09;15.80;;;6.87;;
12076;SDS011;12420;42.676;23.262;2023-09-30T08:56:36;13.30;;;6.30;;
12076;SDS011;12420;42.676;23.262;2023-09-30T08:59:07;12.63;;;6.37;;
12076;SDS011;12420;42.676;23.262;2023-09-30T09:01:38;9.97;;;6.50;;
12076;SDS011;12420;42.676;23.262;2023-09-30T09:04:06;13.77;;;7.37;;
12076;SDS011;12420;42.676;23.262;2023-09-30T09:06:35;11.13;;;7.40;;
12076;SDS011;12420;42.676;23.262;2023-09-30T09:09:14;13.17;;;7.30;;
12076;SDS011;12420;42.676;23.262;2023-09-30T09:11:42;14.03;;;7.00;;
12076;SDS011;12420;42.676;23.262;2023-09-30T09:14:08;15.43;;;7.63;;
12076;SDS011;12420;42.676;23.262;2023-09-30T09:16:35;16.23;;;7.77;;
12076;SDS011;12420;42.676;23.262;2023-09-30T09:19:12;13.93;;;6.83;;
12076;SDS011;12420;42.676;23.262;2023-09-30T09:21:52;10.23;;;6.60;;
12076;SDS011;12420;42.676;23.262;2023-09-30T09:24:27;14.52;;;6.85;;
12076;SDS011;12420;42.676;23.262;2023-09-30T09:27:03;12.43;;;6.50;;
12076;SDS011;12420;42.676;23.262;2023-09-30T09:29:30;9.33;;;6.60;;
12076;SDS011;12420;42.676;23.262;2023-09-30T09:32:06;13.00;;;6.80;;
12076;SDS011;12420;42.676;23.262;2023-09-30T09:34:34;9.60;;;6.40;;
12076;SDS011;12420;42.676;23.262;2023-09-30T09:39:51;10.77;;;5.90;;
12076;SDS011;12420;42.676;23.262;2023-09-30T09:42:25;12.50;;;5.53;;
12076;SDS011;12420;42.676;23.262;2023-09-30T09:44:54;6.40;;;5.03;;
12076;SDS011;12420;42.676;23.262;2023-09-30T09:47:23;17.07;;;5.80;;
12076;SDS011;12420;42.676;23.262;2023-09-30T09:49:50;10.88;;;5.35;;
12076;SDS011;12420;42.676;23.262;2023-09-30T09:52:19;8.57;;;6.13;;
12076;SDS011;12420;42.676;23.262;2023-09-30T09:54:46;13.73;;;5.68;;
12076;SDS011;12420;42.676;23.262;2023-09-30T09:57:16;9.03;;;5.00;;
12076;SDS011;12420;42.676;23.262;2023-09-30T09:59:44;8.05;;;4.70;;
12076;SDS011;12420;42.676;23.262;2023-09-30T10:02:12;16.20;;;5.90;;
12076;SDS011;12420;42.676;23.262;2023-09-30T10:04:40;11.27;;;5.43;;
12076;SDS011;12420;42.676;23.262;2023-09-30T10:07:07;6.70;;;5.07;;
12076;SDS011;12420;42.676;23.262;2023-09-30T10:09:40;16.42;;;5.22;;
12076;SDS011;12420;42.676;23.262;2023-09-30T10:12:11;10.40;;;4.97;;
12076;SDS011;12420;42.676;23.262;2023-09-30T10:14:38;10.65;;;4.75;;
12076;SDS011;12420;42.676;23.262;2023-09-30T10:17:05;7.80;;;5.13;;
12076;SDS011;12420;42.676;23.262;2023-09-30T10:19:32;9.80;;;4.57;;
12076;SDS011;12420;42.676;23.262;2023-09-30T10:24:53;7.13;;;4.37;;
12076;SDS011;12420;42.676;23.262;2023-09-30T10:27:28;14.90;;;5.00;;
12076;SDS011;12420;42.676;23.262;2023-09-30T10:29:57;11.10;;;5.20;;
12076;SDS011;12420;42.676;23.262;2023-09-30T10:41:09;12.85;;;4.00;;
12076;SDS011;12420;42.676;23.262;2023-09-30T10:43:38;12.02;;;3.67;;
12076;SDS011;12420;42.676;23.262;2023-09-30T10:49:16;7.40;;;3.60;;
12076;SDS011;12420;42.676;23.262;2023-09-30T10:51:57;14.30;;;3.97;;
12076;SDS011;12420;42.676;23.262;2023-09-30T10:54:26;9.25;;;4.45;;
12076;SDS011;12420;42.676;23.262;2023-09-30T10:56:56;11.00;;;3.90;;
12076;SDS011;12420;42.676;23.262;2023-09-30T10:59:25;9.23;;;3.63;;
12076;SDS011;12420;42.676;23.262;2023-09-30T11:01:55;8.43;;;3.85;;
12076;SDS011;12420;42.676;23.262;2023-09-30T11:04:22;17.17;;;3.70;;
12076;SDS011;12420;42.676;23.262;2023-09-30T11:06:53;7.75;;;3.40;;
12076;SDS011;12420;42.676;23.262;2023-09-30T11:09:21;9.93;;;3.92;;
12076;SDS011;12420;42.676;23.262;2023-09-30T11:11:48;7.03;;;3.67;;
12076;SDS011;12420;42.676;23.262;2023-09-30T11:14:18;12.10;;;4.33;;
12076;SDS011;12420;42.676;23.262;2023-09-30T11:16:46;8.02;;;3.90;;
12076;SDS011;12420;42.676;23.262;2023-09-30T11:19:14;12.13;;;3.88;;
12076;SDS011;12420;42.676;23.262;2023-09-30T11:21:41;8.20;;;4.13;;
12076;SDS011;12420;42.676;23.262;2023-09-30T11:24:10;8.73;;;3.88;;
12076;SDS011;12420;42.676;23.262;2023-09-30T11:26:37;6.72;;;3.95;;
12076;SDS011;12420;42.676;23.262;2023-09-30T11:29:06;7.00;;;4.20;;
12076;SDS011;12420;42.676;23.262;2023-09-30T11:31:40;6.93;;;4.18;;
12076;SDS011;12420;42.676;23.262;2023-09-30T11:34:08;7.90;;;4.65;;
12076;SDS011;12420;42.676;23.262;2023-09-30T11:36:37;11.75;;;4.30;;
12076;SDS011;12420;42.676;23.262;2023-09-30T11:39:05;9.73;;;4.07;;
12076;SDS011;12420;42.676;23.262;2023-09-30T11:41:34;28.65;;;4.57;;
12076;SDS011;12420;42.676;23.262;2023-09-30T11:44:04;14.15;;;4.90;;
12076;SDS011;12420;42.676;23.262;2023-09-30T11:46:48;6.72;;;4.07;;
12076;SDS011;12420;42.676;23.262;2023-09-30T11:49:28;7.50;;;4.00;;
12076;SDS011;12420;42.676;23.262;2023-09-30T11:51:57;10.02;;;4.72;;
12076;SDS011;12420;42.676;23.262;2023-09-30T11:54:28;8.23;;;4.57;;
12076;SDS011;12420;42.676;23.262;2023-09-30T11:56:59;5.85;;;4.55;;
12076;SDS011;12420;42.676;23.262;2023-09-30T11:59:27;5.47;;;4.22;;
12076;SDS011;12420;42.676;23.262;2023-09-30T12:01:55;7.78;;;4.20;;
12076;SDS011;12420;42.676;23.262;2023-09-30T12:04:22;12.50;;;4.20;;
12076;SDS011;12420;42.676;23.262;2023-09-30T12:06:49;13.80;;;4.47;;
12076;SDS011;12420;42.676;23.262;2023-09-30T12:09:18;10.43;;;4.70;;
12076;SDS011;12420;42.676;23.262;2023-09-30T12:11:47;7.93;;;3.78;;
12076;SDS011;12420;42.676;23.262;2023-09-30T12:14:14;9.77;;;4.30;;
12076;SDS011;12420;42.676;23.262;2023-09-30T12:16:41;10.27;;;4.32;;
12076;SDS011;12420;42.676;23.262;2023-09-30T12:19:12;7.32;;;4.20;;
12076;SDS011;12420;42.676;23.262;2023-09-30T12:21:40;9.95;;;4.57;;
12076;SDS011;12420;42.676;23.262;2023-09-30T12:24:07;8.35;;;4.75;;
12076;SDS011;12420;42.676;23.262;2023-09-30T12:26:36;8.95;;;4.05;;
12076;SDS011;12420;42.676;23.262;2023-09-30T12:29:06;7.57;;;4.30;;
12076;SDS011;12420;42.676;23.262;2023-09-30T12:31:34;7.15;;;4.05;;
12076;SDS011;12420;42.676;23.262;2023-09-30T12:34:01;7.40;;;4.50;;
12076;SDS011;12420;42.676;23.262;2023-09-30T12:36:31;6.20;;;4.28;;
12076;SDS011;12420;42.676;23.262;2023-09-30T12:38:59;6.22;;;4.13;;
12076;SDS011;12420;42.676;23.262;2023-09-30T12:41:25;8.50;;;4.60;;
12076;SDS011;12420;42.676;23.262;2023-09-30T12:43:54;6.40;;;4.38;;
12076;SDS011;12420;42.676;23.262;2023-09-30T12:46:22;9.98;;;4.40;;
12076;SDS011;12420;42.676;23.262;2023-09-30T12:48:50;8.27;;;4.03;;
12076;SDS011;12420;42.676;23.262;2023-09-30T12:51:17;9.68;;;4.30;;
12076;SDS011;12420;42.676;23.262;2023-09-30T12:53:45;10.57;;;4.47;;
12076;SDS011;12420;42.676;23.262;2023-09-30T12:56:12;7.93;;;4.75;;
12076;SDS011;12420;42.676;23.262;2023-09-30T12:58:38;11.70;;;4.90;;
12076;SDS011;12420;42.676;23.262;2023-09-30T13:01:05;11.55;;;4.80;;
12076;SDS011;12420;42.676;23.262;2023-09-30T13:03:32;10.73;;;4.60;;
12076;SDS011;12420;42.676;23.262;2023-09-30T13:06:00;13.10;;;4.60;;
12076;SDS011;12420;42.676;23.262;2023-09-30T13:08:30;7.82;;;4.90;;
12076;SDS011;12420;42.676;23.262;2023-09-30T13:11:01;9.20;;;4.45;;
12076;SDS011;12420;42.676;23.262;2023-09-30T13:13:28;12.80;;;4.72;;
12076;SDS011;12420;42.676;23.262;2023-09-30T13:15:55;9.25;;;4.50;;
12076;SDS011;12420;42.676;23.262;2023-09-30T13:18:22;8.23;;;4.80;;
12076;SDS011;12420;42.676;23.262;2023-09-30T13:20:49;9.13;;;4.80;;
12076;SDS011;12420;42.676;23.262;2023-09-30T13:23:17;17.85;;;5.20;;
12076;SDS011;12420;42.676;23.262;2023-09-30T13:25:44;14.73;;;4.88;;
12076;SDS011;12420;42.676;23.262;2023-09-30T13:28:12;13.15;;;5.25;;
12076;SDS011;12420;42.676;23.262;2023-09-30T13:30:38;11.38;;;5.07;;
12076;SDS011;12420;42.676;23.262;2023-09-30T13:33:06;8.90;;;5.22;;
12076;SDS011;12420;42.676;23.262;2023-09-30T13:35:32;10.27;;;4.88;;
12076;SDS011;12420;42.676;23.262;2023-09-30T13:38:01;9.45;;;4.82;;
12076;SDS011;12420;42.676;23.262;2023-09-30T13:40:28;6.97;;;4.60;;
12076;SDS011;12420;42.676;23.262;2023-09-30T13:42:55;7.82;;;4.80;;
12076;SDS011;12420;42.676;23.262;2023-09-30T13:45:25;10.80;;;4.70;;
12076;SDS011;12420;42.676;23.262;2023-09-30T13:47:53;8.05;;;5.13;;
12076;SDS011;12420;42.676;23.262;2023-09-30T13:50:20;9.95;;;5.70;;
12076;SDS011;12420;42.676;23.262;2023-09-30T13:52:46;9.27;;;4.95;;
12076;SDS011;12420;42.676;23.262;2023-09-30T13:55:13;10.88;;;5.07;;
12076;SDS011;12420;42.676;23.262;2023-09-30T13:57:43;7.63;;;4.72;;
12076;SDS011;12420;42.676;23.262;2023-09-30T14:00:11;9.30;;;4.68;;
12076;SDS011;12420;42.676;23.262;2023-09-30T14:02:40;15.05;;;5.18;;
12076;SDS011;12420;42.676;23.262;2023-09-30T14:05:07;10.45;;;4.82;;
12076;SDS011;12420;42.676;23.262;2023-09-30T14:07:34;12.85;;;4.97;;
12076;SDS011;12420;42.676;23.262;2023-09-30T14:10:01;11.25;;;4.63;;
12076;SDS011;12420;42.676;23.262;2023-09-30T14:12:31;5.85;;;4.40;;
12076;SDS011;12420;42.676;23.262;2023-09-30T14:14:59;9.20;;;4.43;;
12076;SDS011;12420;42.676;23.262;2023-09-30T14:17:26;11.07;;;4.57;;
12076;SDS011;12420;42.676;23.262;2023-09-30T14:19:54;7.18;;;4.78;;
12076;SDS011;12420;42.676;23.262;2023-09-30T14:22:21;7.82;;;4.50;;
12076;SDS011;12420;42.676;23.262;2023-09-30T14:24:48;11.07;;;5.22;;
12076;SDS011;12420;42.676;23.262;2023-09-30T14:27:17;8.35;;;4.47;;
12076;SDS011;12420;42.676;23.262;2023-09-30T14:29:45;7.68;;;5.07;;
12076;SDS011;12420;42.676;23.262;2023-09-30T14:32:12;6.60;;;4.78;;
12076;SDS011;12420;42.676;23.262;2023-09-30T14:34:39;15.13;;;5.20;;
12076;SDS011;12420;42.676;23.262;2023-09-30T14:37:10;9.48;;;4.82;;
12076;SDS011;12420;42.676;23.262;2023-09-30T14:39:36;5.70;;;4.57;;
12076;SDS011;12420;42.676;23.262;2023-09-30T14:42:03;7.88;;;4.53;;
12076;SDS011;12420;42.676;23.262;2023-09-30T14:44:30;7.38;;;4.30;;
12076;SDS011;12420;42.676;23.262;2023-09-30T14:46:57;10.30;;;4.28;;
12076;SDS011;12420;42.676;23.262;2023-09-30T14:49:23;11.80;;;4.80;;